Terminal Aerodrome Forecast
Issued by NWS

Current Version | Previous Version | Text Only | Print | Product List | Glossary Off
Versions: 1 2 3 4 5 6 7 8 9 10 11 12 13 14 15 16 17 18 19 20

000
FTUS41 KILN 241100 AAA
TAFLUK
TAF AMD
KLUK 241126Z 2411/2506 00000KT P6SM BKN004
      TEMPO 2412/2414 SCT005
     FM241400 22005KT P6SM SCT250
     FM241900 22012G20KT P6SM SCT030
     FM250000 24008KT P6SM OVC030=

USA.gov is the U.S. government's official web portal to all federal, state and local government web resources and services.